createdAt,value
2019-02-02T00:01:27.687Z,94711.33
2019-02-02T00:03:57.209Z,94728.23
2019-02-02T00:06:26.722Z,94715.23
2019-02-02T00:08:56.258Z,94720.91
2019-02-02T00:11:25.785Z,94724.32
2019-02-02T00:13:55.838Z,94719.76
2019-02-02T00:16:25.314Z,94717.66
2019-02-02T00:18:54.791Z,94712.63
2019-02-02T00:21:24.298Z,94708.89
2019-02-02T00:23:53.819Z,94714.73
2019-02-02T00:26:23.321Z,94712.30
2019-02-02T00:28:52.802Z,94712.05
2019-02-02T00:31:22.311Z,94716.66
2019-02-02T00:33:51.814Z,94720.23
2019-02-02T00:36:21.300Z,94694.84
2019-02-02T00:38:50.778Z,94724.63
2019-02-02T00:41:20.283Z,94724.05
2019-02-02T00:43:49.770Z,94724.36
2019-02-02T00:46:19.235Z,94722.70
2019-02-02T00:48:48.692Z,94727.69
2019-02-02T00:51:18.175Z,94727.47
2019-02-02T00:53:47.640Z,94734.41
2019-02-02T00:56:17.129Z,94733.48
2019-02-02T00:58:46.623Z,94728.09
2019-02-02T01:01:16.246Z,94727.12
2019-02-02T01:03:45.719Z,94709.40
2019-02-02T01:06:15.283Z,94713.45
2019-02-02T01:08:44.750Z,94707.39
2019-02-02T01:11:14.246Z,94702.41
2019-02-02T01:13:43.719Z,94703.56
2019-02-02T01:16:13.244Z,94678.19
2019-02-02T01:18:42.756Z,94703.40
2019-02-02T01:21:12.237Z,94710.41
2019-02-02T01:23:41.714Z,94705.70
2019-02-02T01:26:11.638Z,94691.92
2019-02-02T01:28:41.106Z,94693.34
2019-02-02T01:31:10.595Z,94691.69
2019-02-02T01:33:40.064Z,94698.54
2019-02-02T01:36:09.570Z,94697.12
2019-02-02T01:38:39.152Z,94685.17
2019-02-02T01:41:08.616Z,94684.99
2019-02-02T01:43:38.095Z,94679.86
2019-02-02T01:46:07.658Z,94684.36
2019-02-02T01:48:37.122Z,94675.58
2019-02-02T01:51:06.558Z,94672.80
2019-02-02T01:53:36.036Z,94672.75
2019-02-02T01:56:05.628Z,94672.09
2019-02-02T01:58:35.092Z,94661.20
2019-02-02T02:01:05.150Z,94666.19
2019-02-02T02:03:34.631Z,94666.02
2019-02-02T02:06:04.122Z,94665.98
2019-02-02T02:08:33.617Z,94660.13
2019-02-02T02:11:03.097Z,94666.78
2019-02-02T02:13:32.562Z,94664.19
2019-02-02T02:16:02.047Z,94663.20
2019-02-02T02:18:31.532Z,94660.11
2019-02-02T02:21:01.100Z,94661.38
2019-02-02T02:23:30.605Z,94655.03
2019-02-02T02:26:00.094Z,94663.64
2019-02-02T02:28:29.573Z,94657.36
2019-02-02T02:30:59.050Z,94656.22
2019-02-02T02:33:30.248Z,94654.27
2019-02-02T02:35:59.770Z,94648.20
2019-02-02T02:38:29.244Z,94643.15
2019-02-02T02:40:58.747Z,94650.05
2019-02-02T02:43:28.234Z,94639.05
2019-02-02T02:45:57.694Z,94630.57
2019-02-02T02:48:27.184Z,94638.20
2019-02-02T02:50:56.847Z,94639.88
2019-02-02T02:53:26.338Z,94641.46
2019-02-02T02:55:55.827Z,94640.95
2019-02-02T02:58:25.292Z,94645.29
2019-02-02T03:00:54.787Z,94652.70
2019-02-02T03:03:24.293Z,94644.78
2019-02-02T03:05:53.807Z,94643.16
2019-02-02T03:08:23.283Z,94639.75
2019-02-02T03:10:52.778Z,94645.27
2019-02-02T03:13:22.253Z,94643.97
2019-02-02T03:15:51.760Z,94654.64
2019-02-02T03:18:21.662Z,94655.03
2019-02-02T03:20:51.169Z,94654.44
2019-02-02T03:23:20.667Z,94661.64
2019-02-02T03:25:50.173Z,94663.60
2019-02-02T03:28:19.666Z,94663.29
2019-02-02T03:30:49.144Z,94657.81
2019-02-02T03:33:18.633Z,94660.91
2019-02-02T03:35:48.172Z,94659.65
2019-02-02T03:38:18.715Z,94660.61
2019-02-02T03:40:48.229Z,94664.47
2019-02-02T03:43:17.727Z,94655.70
2019-02-02T03:45:47.202Z,94658.83
2019-02-02T03:48:16.647Z,94647.19
2019-02-02T03:50:46.119Z,94649.47
2019-02-02T03:53:15.602Z,94648.86
2019-02-02T03:55:45.357Z,94651.82
2019-02-02T03:58:14.829Z,94662.34
2019-02-02T04:00:44.341Z,94652.61
2019-02-02T04:03:14.337Z,94656.28
2019-02-02T04:05:43.841Z,94652.71
2019-02-02T04:08:13.319Z,94646.41
2019-02-02T04:10:42.803Z,94644.95
2019-02-02T04:13:12.309Z,94645.44
2019-02-02T04:15:41.882Z,94642.23
2019-02-02T04:18:11.374Z,94650.02
2019-02-02T04:20:41.469Z,94650.63
2019-02-02T04:23:10.986Z,94659.08
2019-02-02T04:25:40.457Z,94658.27
2019-02-02T04:28:09.949Z,94647.03
2019-02-02T04:30:39.467Z,94645.61
2019-02-02T04:33:08.954Z,94639.41
2019-02-02T04:35:38.404Z,94635.02
2019-02-02T04:38:07.873Z,94645.41
2019-02-02T04:40:37.362Z,94640.09
2019-02-02T04:43:06.984Z,94635.67
2019-02-02T04:45:36.451Z,94631.94
2019-02-02T04:48:06.048Z,94630.80
2019-02-02T04:50:35.528Z,94639.52
2019-02-02T04:53:05.010Z,94651.05
2019-02-02T04:55:34.458Z,94651.58
2019-02-02T04:58:03.898Z,94637.91
2019-02-02T05:00:33.394Z,94662.41
2019-02-02T05:03:02.862Z,94645.98
2019-02-02T05:05:32.339Z,94646.14
2019-02-02T05:08:01.826Z,94653.45
2019-02-02T05:10:31.300Z,94640.63
2019-02-02T05:13:00.789Z,94644.36
2019-02-02T05:15:30.253Z,94637.05
2019-02-02T05:17:59.756Z,94642.73
2019-02-02T05:20:29.245Z,94645.69
2019-02-02T05:22:58.705Z,94637.70
2019-02-02T05:25:28.197Z,94638.19
2019-02-02T05:27:57.706Z,94656.37
2019-02-02T05:30:29.334Z,94642.73
2019-02-02T05:32:58.859Z,94649.55
2019-02-02T05:35:28.448Z,94654.74
2019-02-02T05:37:57.908Z,94663.19
2019-02-02T05:40:27.371Z,94663.88
2019-02-02T05:42:56.900Z,94660.63
2019-02-02T05:45:26.377Z,94670.86
2019-02-02T05:47:55.870Z,94659.82
2019-02-02T05:50:25.375Z,94662.29
2019-02-02T05:52:54.842Z,94664.23
2019-02-02T05:55:24.482Z,94684.91
2019-02-02T05:57:53.962Z,94677.27
2019-02-02T06:00:38.703Z,94694.77
2019-02-02T06:03:08.133Z,94678.55
2019-02-02T06:05:37.635Z,94683.06
2019-02-02T06:08:07.142Z,94681.77
2019-02-02T06:10:36.669Z,94667.16
2019-02-02T06:13:06.351Z,94678.48
2019-02-02T06:15:37.483Z,94663.84
2019-02-02T06:18:07.169Z,94693.03
2019-02-02T06:20:36.635Z,94706.66
2019-02-02T06:23:06.135Z,94702.53
2019-02-02T06:25:35.648Z,94691.27
2019-02-02T06:28:05.153Z,94698.88
2019-02-02T06:30:34.639Z,94707.15
2019-02-02T06:33:04.339Z,94700.48
2019-02-02T06:35:33.803Z,94697.95
2019-02-02T06:38:03.284Z,94702.92
2019-02-02T06:40:32.744Z,94711.70
2019-02-02T06:43:02.228Z,94698.54
2019-02-02T06:45:33.792Z,94713.65
2019-02-02T06:48:03.539Z,94704.72
2019-02-02T06:50:33.067Z,94714.45
2019-02-02T06:53:03.031Z,94706.44
2019-02-02T06:55:32.541Z,94716.50
2019-02-02T06:58:02.076Z,94715.78
2019-02-02T07:00:31.600Z,94716.84
2019-02-02T07:03:01.187Z,94717.77
2019-02-02T07:05:33.754Z,94717.09
2019-02-02T07:08:02.507Z,94727.44
2019-02-02T07:10:31.998Z,94725.47
2019-02-02T07:13:01.474Z,94729.64
2019-02-02T07:15:31.342Z,94716.92
2019-02-02T07:18:00.991Z,94724.66
2019-02-02T07:20:30.509Z,94725.22
2019-02-02T07:23:01.742Z,94732.73
2019-02-02T07:25:31.208Z,94734.28
2019-02-02T07:28:00.698Z,94732.81
2019-02-02T07:30:30.155Z,94732.64
2019-02-02T07:32:59.694Z,94725.66
2019-02-02T07:35:29.207Z,94723.61
2019-02-02T07:37:58.720Z,94715.22
2019-02-02T07:40:28.246Z,94719.33
2019-02-02T07:42:57.876Z,94716.31
2019-02-02T07:45:29.579Z,94694.47
2019-02-02T07:47:59.094Z,94699.80
2019-02-02T07:50:28.576Z,94684.44
2019-02-02T07:52:58.222Z,94689.77
2019-02-02T07:55:27.673Z,94684.61
2019-02-02T07:57:57.165Z,94697.63
2019-02-02T08:00:39.642Z,94681.13
2019-02-02T08:03:00.186Z,94695.34
2019-02-02T08:05:29.687Z,94693.30
2019-02-02T08:07:59.260Z,94681.86
2019-02-02T08:10:28.729Z,94682.35
2019-02-02T08:12:58.519Z,94699.69
2019-02-02T08:15:29.790Z,94693.06
2019-02-02T08:17:59.289Z,94678.20
2019-02-02T08:20:28.799Z,94685.77
2019-02-02T08:22:58.358Z,94697.66
2019-02-02T08:25:27.974Z,94693.28
2019-02-02T08:27:57.537Z,94681.91
2019-02-02T08:30:29.186Z,94688.87
2019-02-02T08:32:58.823Z,94686.72
2019-02-02T08:35:28.436Z,94710.20
2019-02-02T08:37:57.943Z,94678.73
2019-02-02T08:40:27.456Z,94698.87
2019-02-02T08:42:56.954Z,94691.84
2019-02-02T08:45:26.454Z,94676.00
2019-02-02T08:47:55.986Z,94689.77
2019-02-02T08:50:28.107Z,94687.77
2019-02-02T08:52:57.627Z,94690.31
2019-02-02T08:55:27.498Z,94675.43
2019-02-02T08:57:57.282Z,94674.86
2019-02-02T09:00:26.978Z,94685.47
2019-02-02T09:02:56.508Z,94674.46
2019-02-02T09:05:26.053Z,94685.29
2019-02-02T09:07:55.567Z,94677.38
2019-02-02T09:10:26.829Z,94675.13
2019-02-02T09:12:56.545Z,94682.85
2019-02-02T09:15:26.127Z,94681.86
2019-02-02T09:17:55.646Z,94686.63
2019-02-02T09:20:25.146Z,94687.63
2019-02-02T09:23:03.978Z,94682.38
2019-02-02T09:25:26.046Z,94685.69
2019-02-02T09:27:55.545Z,94697.22
2019-02-02T09:30:33.442Z,94696.72
2019-02-02T09:33:02.937Z,94705.61
2019-02-02T09:35:32.450Z,94708.19
2019-02-02T09:38:01.935Z,94694.38
2019-02-02T09:40:32.877Z,94692.39
2019-02-02T09:43:02.398Z,94686.23
2019-02-02T09:45:31.919Z,94694.22
2019-02-02T09:48:01.371Z,94687.18
2019-02-02T09:50:30.922Z,94686.42
2019-02-02T09:53:00.415Z,94688.73
2019-02-02T09:55:29.907Z,94690.55
2019-02-02T09:58:02.499Z,94678.40
2019-02-02T10:00:32.910Z,94684.57
2019-02-02T10:03:02.672Z,94687.73
2019-02-02T10:05:32.821Z,94673.35
2019-02-02T10:08:02.589Z,94677.98
2019-02-02T10:10:33.857Z,94675.78
2019-02-02T10:13:03.396Z,94668.61
2019-02-02T10:15:33.143Z,94676.72
2019-02-02T10:18:02.637Z,94671.59
2019-02-02T10:20:32.293Z,94666.97
2019-02-02T10:23:02.039Z,94676.75
2019-02-02T10:25:32.180Z,94667.78
2019-02-02T10:28:01.772Z,94668.39
2019-02-02T10:30:36.423Z,94658.61
2019-02-02T10:33:06.241Z,94651.89
2019-02-02T10:35:35.791Z,94659.16
2019-02-02T10:38:05.793Z,94644.75
2019-02-02T10:40:35.376Z,94638.78
2019-02-02T10:43:05.315Z,94640.09
2019-02-02T10:45:35.154Z,94642.81
2019-02-02T10:48:05.845Z,94630.70
2019-02-02T10:50:35.554Z,94631.33
2019-02-02T10:53:05.288Z,94627.41
2019-02-02T10:55:36.243Z,94623.88
2019-02-02T10:58:06.595Z,94613.66
2019-02-02T11:00:38.741Z,94616.68
2019-02-02T11:03:08.348Z,94614.16
2019-02-02T11:05:37.965Z,94615.05
2019-02-02T11:08:07.872Z,94606.45
2019-02-02T11:10:37.607Z,94614.39
2019-02-02T11:13:08.049Z,94598.66
2019-02-02T11:15:37.718Z,94588.86
2019-02-02T11:18:07.740Z,94591.48
2019-02-02T11:20:37.326Z,94603.06
2019-02-02T11:23:15.210Z,94607.90
2019-02-02T11:25:44.962Z,94601.88
2019-02-02T11:28:14.558Z,94604.25
2019-02-02T11:30:44.021Z,94606.53
2019-02-02T11:33:13.532Z,94601.42
2019-02-02T11:35:43.004Z,94592.53
2019-02-02T11:38:12.499Z,94587.28
2019-02-02T11:40:42.011Z,94578.97
2019-02-02T11:43:11.543Z,94583.91
2019-02-02T11:45:41.060Z,94583.30
2019-02-02T11:48:10.703Z,94581.95
2019-02-02T11:50:40.208Z,94583.81
2019-02-02T11:53:09.948Z,94579.31
2019-02-02T11:55:39.441Z,94570.62
2019-02-02T11:58:08.951Z,94559.33
2019-02-02T12:00:40.752Z,94555.16
2019-02-02T12:03:10.349Z,94552.08
2019-02-02T12:05:40.006Z,94549.11
2019-02-02T12:08:09.578Z,94551.05
2019-02-02T12:10:39.117Z,94546.75
2019-02-02T12:13:08.651Z,94541.17
2019-02-02T12:15:38.214Z,94542.20
2019-02-02T12:18:07.825Z,94539.78
2019-02-02T12:20:37.364Z,94542.16
2019-02-02T12:23:06.911Z,94538.73
2019-02-02T12:25:36.444Z,94531.41
2019-02-02T12:28:08.971Z,94531.11
2019-02-02T12:30:37.581Z,94528.80
2019-02-02T12:33:07.540Z,94523.91
2019-02-02T12:35:37.052Z,94539.03
2019-02-02T12:38:07.234Z,94541.86
2019-02-02T12:40:36.724Z,94531.06
2019-02-02T12:43:06.399Z,94530.14
2019-02-02T12:45:50.845Z,94540.45
2019-02-02T12:48:20.317Z,94544.61
2019-02-02T12:50:50.793Z,94539.27
2019-02-02T12:53:22.411Z,94539.30
2019-02-02T12:55:52.217Z,94538.94
2019-02-02T12:58:21.807Z,94541.58
2019-02-02T13:00:51.315Z,94542.69
2019-02-02T13:03:20.836Z,94545.23
2019-02-02T13:05:50.393Z,94549.07
2019-02-02T13:08:19.960Z,94554.05
2019-02-02T13:10:49.623Z,94546.67
2019-02-02T13:13:19.121Z,94542.20
2019-02-02T13:15:48.634Z,94555.20
2019-02-02T13:18:18.129Z,94546.99
2019-02-02T13:20:47.625Z,94552.75
2019-02-02T13:23:19.108Z,94547.91
2019-02-02T13:25:48.592Z,94553.80
2019-02-02T13:28:18.072Z,94553.23
2019-02-02T13:30:47.575Z,94552.91
2019-02-02T13:33:17.062Z,94554.48
2019-02-02T13:35:47.555Z,94561.95
2019-02-02T13:38:17.176Z,94565.89
2019-02-02T13:40:46.697Z,94562.25
2019-02-02T13:43:16.213Z,94566.76
2019-02-02T13:45:45.709Z,94564.88
2019-02-02T13:48:15.235Z,94561.86
2019-02-02T13:50:44.810Z,94564.43
2019-02-02T13:53:14.442Z,94564.91
2019-02-02T13:55:43.932Z,94563.92
2019-02-02T13:58:13.505Z,94555.89
2019-02-02T14:00:42.994Z,94553.27
2019-02-02T14:03:12.451Z,94547.53
2019-02-02T14:05:42.240Z,94551.92
2019-02-02T14:08:12.108Z,94550.03
2019-02-02T14:10:41.632Z,94543.05
2019-02-02T14:13:11.130Z,94546.94
2019-02-02T14:15:42.737Z,94538.55
2019-02-02T14:18:12.266Z,94555.84
2019-02-02T14:20:41.791Z,94548.63
2019-02-02T14:23:11.255Z,94548.26
2019-02-02T14:25:40.716Z,94559.84
2019-02-02T14:28:10.172Z,94541.34
2019-02-02T14:30:39.661Z,94546.86
2019-02-02T14:33:14.172Z,94548.35
2019-02-02T14:35:40.446Z,94553.52
2019-02-02T14:38:09.887Z,94550.59
2019-02-02T14:40:39.499Z,94553.61
2019-02-02T14:43:08.983Z,94545.18
2019-02-02T14:45:38.488Z,94547.09
2019-02-02T14:48:08.083Z,94548.31
2019-02-02T14:50:37.600Z,94556.80
2019-02-02T14:53:07.151Z,94550.39
2019-02-02T14:55:36.718Z,94552.62
2019-02-02T14:58:07.081Z,94541.91
2019-02-02T15:00:36.659Z,94541.61
2019-02-02T15:03:06.455Z,94543.83
2019-02-02T15:05:43.137Z,94540.50
2019-02-02T15:08:07.136Z,94541.36
2019-02-02T15:10:36.614Z,94538.73
2019-02-02T15:13:06.205Z,94531.78
2019-02-02T15:15:38.782Z,94541.97
2019-02-02T15:18:08.304Z,94532.38
2019-02-02T15:20:38.953Z,94540.23
2019-02-02T15:23:08.562Z,94538.11
2019-02-02T15:25:38.036Z,94540.44
2019-02-02T15:28:07.612Z,94546.48
2019-02-02T15:30:37.460Z,94543.86
2019-02-02T15:33:07.418Z,94543.46
2019-02-02T15:35:36.955Z,94544.51
2019-02-02T15:38:06.568Z,94547.88
2019-02-02T15:40:36.072Z,94529.11
2019-02-02T15:43:05.898Z,94535.85
2019-02-02T15:45:35.427Z,94545.36
2019-02-02T15:48:05.052Z,94538.13
2019-02-02T15:50:34.565Z,94538.72
2019-02-02T15:53:04.813Z,94543.16
2019-02-02T15:55:34.300Z,94540.66
2019-02-02T15:58:03.851Z,94538.73
2019-02-02T16:00:38.312Z,94541.06
2019-02-02T16:03:07.918Z,94536.73
2019-02-02T16:05:38.079Z,94544.56
2019-02-02T16:08:10.672Z,94533.69
2019-02-02T16:10:40.273Z,94545.39
2019-02-02T16:13:09.934Z,94555.63
2019-02-02T16:15:39.457Z,94568.83
2019-02-02T16:18:08.950Z,94567.61
2019-02-02T16:20:42.212Z,94568.72
2019-02-02T16:23:11.715Z,94573.03
2019-02-02T16:25:41.366Z,94564.59
2019-02-02T16:28:15.266Z,94557.14
2019-02-02T16:30:44.975Z,94557.02
2019-02-02T16:33:14.716Z,94554.83
2019-02-02T16:35:44.228Z,94563.76
2019-02-02T16:38:13.724Z,94568.48
2019-02-02T16:40:43.266Z,94557.10
2019-02-02T16:43:12.920Z,94552.66
2019-02-02T16:45:42.459Z,94568.94
2019-02-02T16:48:12.017Z,94575.14
2019-02-02T16:50:41.537Z,94560.50
2019-02-02T16:53:11.114Z,94565.61
2019-02-02T16:55:40.646Z,94567.16
2019-02-02T16:58:10.240Z,94565.25
2019-02-02T17:00:39.932Z,94567.30
2019-02-02T17:03:09.502Z,94562.77
2019-02-02T17:05:39.176Z,94561.77
2019-02-02T17:08:08.724Z,94552.92
2019-02-02T17:10:38.782Z,94565.42
2019-02-02T17:13:08.591Z,94571.66
2019-02-02T17:15:38.608Z,94577.88
2019-02-02T17:18:08.473Z,94580.08
2019-02-02T17:20:40.325Z,94580.48
2019-02-02T17:23:10.011Z,94583.88
2019-02-02T17:25:39.565Z,94585.19
2019-02-02T17:28:10.245Z,94589.33
2019-02-02T17:30:39.966Z,94589.36
2019-02-02T17:33:12.102Z,94587.41
2019-02-02T17:35:41.696Z,94588.83
2019-02-02T17:38:11.288Z,94574.65
2019-02-02T17:40:40.793Z,94581.00
2019-02-02T17:43:10.267Z,94586.84
2019-02-02T17:45:40.029Z,94585.75
2019-02-02T17:48:12.999Z,94585.88
2019-02-02T17:50:41.376Z,94576.91
2019-02-02T17:53:10.885Z,94588.30
2019-02-02T17:55:40.346Z,94588.11
2019-02-02T17:58:09.867Z,94591.76
2019-02-02T18:00:48.729Z,94597.77
2019-02-02T18:03:18.243Z,94605.05
2019-02-02T18:05:47.729Z,94600.60
2019-02-02T18:08:17.191Z,94592.77
2019-02-02T18:10:46.695Z,94603.27
2019-02-02T18:13:16.165Z,94593.45
2019-02-02T18:15:45.705Z,94589.00
2019-02-02T18:18:15.188Z,94595.72
2019-02-02T18:20:44.758Z,94595.53
2019-02-02T18:23:14.301Z,94584.09
2019-02-02T18:25:43.828Z,94591.02
2019-02-02T18:28:13.409Z,94585.77
2019-02-02T18:30:42.920Z,94593.88
2019-02-02T18:33:12.518Z,94600.34
2019-02-02T18:35:42.010Z,94581.68
2019-02-02T18:38:11.477Z,94592.28
2019-02-02T18:40:40.990Z,94608.41
2019-02-02T18:43:10.519Z,94582.58
2019-02-02T18:45:43.179Z,94597.92
2019-02-02T18:48:12.980Z,94599.59
2019-02-02T18:50:42.536Z,94600.66
2019-02-02T18:53:12.042Z,94601.52
2019-02-02T18:55:44.701Z,94588.46
2019-02-02T18:58:14.186Z,94607.05
2019-02-02T19:00:43.659Z,94608.98
2019-02-02T19:03:13.222Z,94625.94
2019-02-02T19:05:42.784Z,94611.46
2019-02-02T19:08:12.444Z,94612.41
2019-02-02T19:10:41.943Z,94610.59
2019-02-02T19:13:11.572Z,94607.18
2019-02-02T19:15:41.080Z,94607.81
2019-02-02T19:18:12.210Z,94605.86
2019-02-02T19:20:41.697Z,94605.73
2019-02-02T19:23:11.319Z,94619.66
2019-02-02T19:25:40.787Z,94604.55
2019-02-02T19:28:10.331Z,94622.00
2019-02-02T19:30:39.803Z,94618.64
2019-02-02T19:33:09.412Z,94612.52
2019-02-02T19:35:38.948Z,94612.27
2019-02-02T19:38:08.842Z,94616.48
2019-02-02T19:40:38.532Z,94613.30
2019-02-02T19:43:08.531Z,94616.27
2019-02-02T19:45:38.078Z,94631.70
2019-02-02T19:48:07.614Z,94610.72
2019-02-02T19:50:37.189Z,94623.47
2019-02-02T19:53:06.698Z,94620.16
2019-02-02T19:55:36.229Z,94614.63
2019-02-02T19:58:06.418Z,94613.50
2019-02-02T20:00:36.016Z,94611.59
2019-02-02T20:03:05.706Z,94618.28
2019-02-02T20:05:35.256Z,94622.82
2019-02-02T20:08:05.384Z,94623.28
2019-02-02T20:10:34.887Z,94627.02
2019-02-02T20:13:04.551Z,94613.08
2019-02-02T20:15:34.059Z,94607.13
2019-02-02T20:18:09.891Z,94623.10
2019-02-02T20:20:37.731Z,94622.79
2019-02-02T20:23:07.226Z,94613.92
2019-02-02T20:25:36.731Z,94616.00
2019-02-02T20:28:06.225Z,94620.93
2019-02-02T20:30:35.701Z,94616.95
2019-02-02T20:33:05.594Z,94623.18
2019-02-02T20:35:41.959Z,94635.58
2019-02-02T20:38:06.278Z,94623.61
2019-02-02T20:40:35.767Z,94628.96
2019-02-02T20:43:05.387Z,94618.78
2019-02-02T20:45:36.049Z,94607.38
2019-02-02T20:48:06.175Z,94634.63
2019-02-02T20:50:35.686Z,94631.08
2019-02-02T20:53:05.662Z,94624.06
2019-02-02T20:55:38.084Z,94619.70
2019-02-02T20:58:07.835Z,94605.93
2019-02-02T21:00:38.006Z,94612.16
2019-02-02T21:03:07.649Z,94611.80
2019-02-02T21:05:37.131Z,94602.77
2019-02-02T21:08:07.046Z,94608.08
2019-02-02T21:10:36.548Z,94604.55
2019-02-02T21:13:06.346Z,94605.93
2019-02-02T21:15:35.911Z,94603.39
2019-02-02T21:18:05.975Z,94602.48
2019-02-02T21:20:36.126Z,94598.04
2019-02-02T21:23:05.814Z,94608.70
2019-02-02T21:25:35.341Z,94611.38
2019-02-02T21:28:05.378Z,94609.59
2019-02-02T21:30:35.771Z,94606.59
2019-02-02T21:33:05.775Z,94618.78
2019-02-02T21:35:35.528Z,94617.94
2019-02-02T21:38:05.605Z,94623.78
2019-02-02T21:40:36.044Z,94618.28
2019-02-02T21:43:08.114Z,94625.34
2019-02-02T21:45:38.004Z,94622.16
2019-02-02T21:48:07.627Z,94625.39
2019-02-02T21:50:37.308Z,94627.86
2019-02-02T21:53:06.957Z,94621.17
2019-02-02T21:55:36.497Z,94627.94
2019-02-02T21:58:06.151Z,94635.84
2019-02-02T22:00:42.913Z,94630.60
2019-02-02T22:03:12.420Z,94634.55
2019-02-02T22:05:41.948Z,94636.48
2019-02-02T22:08:11.615Z,94644.23
2019-02-02T22:10:41.599Z,94635.32
2019-02-02T22:13:11.112Z,94644.66
2019-02-02T22:15:40.631Z,94636.95
2019-02-02T22:18:10.252Z,94641.50
2019-02-02T22:20:39.794Z,94646.36
2019-02-02T22:23:09.649Z,94640.86
2019-02-02T22:25:39.123Z,94649.98
2019-02-02T22:28:08.577Z,94649.06
2019-02-02T22:30:38.533Z,94661.22
2019-02-02T22:33:08.493Z,94662.41
2019-02-02T22:35:38.141Z,94660.45
2019-02-02T22:38:07.849Z,94655.53
2019-02-02T22:40:37.454Z,94657.27
2019-02-02T22:43:07.223Z,94663.87
2019-02-02T22:45:36.729Z,94649.23
2019-02-02T22:48:07.199Z,94651.75
2019-02-02T22:50:36.803Z,94650.67
2019-02-02T22:53:06.391Z,94658.11
2019-02-02T22:55:39.005Z,94647.61
2019-02-02T22:58:08.503Z,94655.91
2019-02-02T23:01:07.772Z,94653.45
2019-02-02T23:04:27.830Z,94651.11
2019-02-02T23:07:21.381Z,94649.72
2019-02-02T23:10:31.631Z,94644.94
2019-02-02T23:13:51.261Z,94641.19
2019-02-02T23:16:28.587Z,94642.23
2019-02-02T23:18:59.369Z,94636.38
2019-02-02T23:21:30.073Z,94634.70
2019-02-02T23:23:59.604Z,94642.98
2019-02-02T23:26:29.113Z,94651.63
2019-02-02T23:28:58.617Z,94641.78
2019-02-02T23:31:28.129Z,94640.80
2019-02-02T23:33:57.597Z,94637.31
2019-02-02T23:36:27.101Z,94639.50
2019-02-02T23:38:56.595Z,94637.45
2019-02-02T23:41:26.091Z,94632.98
2019-02-02T23:43:55.887Z,94630.95
2019-02-02T23:46:25.410Z,94635.41
2019-02-02T23:48:54.898Z,94622.27
2019-02-02T23:51:24.412Z,94628.89
2019-02-02T23:53:54.526Z,94632.19
2019-02-02T23:56:24.129Z,94634.30
2019-02-02T23:58:53.665Z,94639.16
